• Join FlightAware (Why Join?)
  • Login
  • US Flag 
02:20AM EDT


 

Airport Tracker/Info


-or-


 

Live Flight TrackerFlight Track Log ✈ UAL563 ✈ 25-Apr-2013 ✈ KEWR - KLAS

Flight Track Log - Related Links

Times and Time Zones

All times are in EDT time to prevent confusion due to time zone crossing. See the UAL563 flight status page for this flight to view local times or setup timezone preferences in your user account.

Time Position Orientation Groundspeed Altitude Reporting Facility
EDT Latitude Longitude Course Direction KTS MPH feet Rate Location/Type
07:15PM 40.6500 -74.1833 288° West 168 193 1,600  Level New York TRACON
07:16PM 40.6667 -74.2500 288° West 231 266 2,800 2,040 Climbing New York TRACON
07:17PM 40.7167 -74.3000 323° Northwest 263 303 5,800 3,000 Climbing New York TRACON
07:18PM 40.7833 -74.3667 323° Northwest 269 310 8,800 2,160 Climbing New York TRACON
07:19PM 40.8500 -74.4167 330° Northwest 285 328 10,200 1,200 Climbing New York TRACON
07:20PM 40.9097 -74.4750 324° Northwest 332 382 11,200 1,860 Climbing New York Center
07:21PM 40.9886 -74.5536 323° Northwest 354 407 13,800 2,220 Climbing New York Center
07:22PM 41.0733 -74.6325 325° Northwest 365 420 15,700 1,500 Climbing New York Center
07:23PM 41.1417 -74.7081 320° Northwest 365 420 16,900 1,380 Climbing New York Center
07:24PM 41.1997 -74.8383 301° West 364 419 18,500 1,560 Climbing New York Center
07:25PM 41.2442 -74.9403 300° West 364 419 20,000 1,500 Climbing New York Center
07:26PM 41.2961 -75.0650 299° West 375 432 21,600 1,560 Climbing New York Center
07:27PM 41.3497 -75.1900 300° West 383 441 23,200 1,380 Climbing New York Center
07:28PM 41.4031 -75.3181 299° West 383 441 24,400 1,200 Climbing New York Center
07:29PM 41.4586 -75.4464 300° West 390 449 25,600 1,140 Climbing New York Center
07:30PM 41.5053 -75.5825 295° West 390 449 26,700 900 Climbing New York Center
07:31PM 41.5453 -75.7211 291° West 400 460 27,400 840 Climbing New York Center
07:32PM 41.5850 -75.8628 291° West 405 466 28,500 1,080 Climbing New York Center
07:33PM 41.6267 -76.0075 291° West 410 472 29,600 720 Climbing New York Center
07:34PM 41.6661 -76.1522 290° West 415 478 30,000 120 Climbing New York Center
07:36PM 41.7361 -76.4114 290° West 414 476 30,000  Level Cleveland Center
07:37PM 41.7789 -76.5536 292° West 414 476 30,000  Level Cleveland Center
07:38PM 41.8192 -76.6989 290° West 414 476 30,000  Level Cleveland Center
07:39PM 41.8575 -76.8414 290° West 419 482 30,000  Level Cleveland Center
07:40PM 41.8953 -76.9844 290° West 419 482 30,000  Level Cleveland Center
07:41PM 41.9372 -77.1272 292° West 419 482 30,000 60 Level Cleveland Center
07:42PM 41.9747 -77.2706 289° West 419 482 30,200 480 Climbing Cleveland Center
07:43PM 42.0122 -77.4167 289° West 419 482 31,000 780 Climbing Cleveland Center
07:44PM 42.0497 -77.5631 289° West 419 482 31,800 480 Climbing Cleveland Center
07:45PM 42.0933 -77.7206 291° West 419 482 32,000 60 Climbing Cleveland Center
07:46PM 42.1322 -77.8617 290° West 414 476 32,000  Level Cleveland Center
07:47PM 42.1686 -78.0031 289° West 414 476 32,000  Level Cleveland Center
07:48PM 42.2072 -78.1472 290° West 409 471 32,000  Level Cleveland Center
07:49PM 42.2436 -78.2917 289° West 409 471 32,100  Climbing Cleveland Center
07:50PM 42.2797 -78.4333 289° West 404 465 32,000 -60 Descending Cleveland Center
07:51PM 42.3156 -78.5756 289° West 398 458 32,000  Level Cleveland Center
07:52PM 42.3514 -78.7175 289° West 403 464 32,000  Level Cleveland Center
07:53PM 42.3889 -78.8600 290° West 403 464 32,000  Level Cleveland Center
07:54PM 42.4244 -79.0053 288° West 403 464 32,000  Level Cleveland Center
07:55PM 42.4639 -79.1561 290° West 409 471 32,000  Level Cleveland Center
07:56PM 42.4947 -79.3047 286° West 409 471 32,000  Level Cleveland Center
07:57PM 42.5006 -79.4594 273° West 416 479 32,100  Climbing Cleveland Center
07:58PM 42.5103 -79.6142 275° West 416 479 32,000 -60 Descending Cleveland Center
07:59PM 42.5178 -79.7664 274° West 416 479 32,000  Level Cleveland Center
08:00PM 42.5250 -79.9156 274° West 405 466 32,000  Level Cleveland Center
08:01PM 42.5278 -80.0506 272° West 405 466 32,000  Level Cleveland Center
08:02PM 42.5347 -80.2169 273° West 405 466 32,000  Level Cleveland Center
08:03PM 42.5414 -80.3692 273° West 405 466 32,000  Level Cleveland Center
08:04PM 42.5478 -80.5211 273° West 405 466 32,000  Level Cleveland Center
08:05PM 42.5519 -80.6761 272° West 405 466 32,000  Level Cleveland Center
08:06PM 42.5578 -80.8228 273° West 400 460 32,000  Level Cleveland Center
08:07PM 42.5636 -80.9806 273° West 406 467 32,000  Level Cleveland Center
08:08PM 42.5672 -81.1272 272° West 406 467 32,000  Level Cleveland Center
08:09PM 42.5747 -81.2825 274° West 406 467 32,000  Level Cleveland Center
08:10PM 42.5822 -81.4319 274° West 401 461 32,000  Level Cleveland Center
08:11PM 42.6061 -81.5761 283° West 401 461 32,000  Level Cleveland Center
08:12PM 42.6297 -81.7233 282° West 406 467 32,000  Level Cleveland Center
08:13PM 42.6533 -81.8592 283° West 406 467 32,000  Level Cleveland Center
08:14PM 42.6786 -82.0067 283° West 406 467 32,000  Level Cleveland Center
08:15PM 42.7058 -82.1597 284° West 411 473 32,000  Level Cleveland Center
08:16PM 42.7308 -82.3072 283° West 411 473 32,000  Level Cleveland Center
08:17PM 42.7556 -82.4581 283° West 411 473 32,000  Level Cleveland Center
08:18PM 42.7800 -82.6058 283° West 411 473 32,000  Level Cleveland Center
08:19PM 42.8044 -82.7536 283° West 411 473 32,000 -60 Level Cleveland Center
08:20PM 42.8289 -82.8961 283° West 406 467 31,900  Descending Cleveland Center
08:21PM 42.8528 -83.0442 282° West 401 461 32,000  Climbing Cleveland Center
08:22PM 42.8767 -83.1925 282° West 395 455 32,000  Level Cleveland Center
08:23PM 42.8983 -83.3381 282° West 395 455 32,000  Level Cleveland Center
08:24PM 42.9239 -83.4867 283° West 395 455 32,000  Level Cleveland Center
08:25PM 42.9508 -83.6553 282° West 400 460 32,000  Level Cleveland Center
08:26PM 42.9717 -83.8011 281° West 400 460 32,000  Level Cleveland Center
08:27PM 42.9842 -83.9494 277° West 395 455 32,000  Level Cleveland Center
08:28PM 43.0008 -84.0950 279° West 395 455 32,000  Level Cleveland Center
08:29PM 43.0150 -84.2436 277° West 389 448 32,000  Level Cleveland Center
08:30PM 43.0319 -84.3969 279° West 387 445 32,000  Level Chicago Center
08:31PM 43.0489 -84.5722 278° West 388 447 32,000  Level Chicago Center
08:32PM 43.0617 -84.7186 277° West 390 449 32,000  Level Chicago Center
08:33PM 43.0753 -84.8653 277° West 391 450 32,000  Level Chicago Center
08:34PM 43.0875 -85.0133 276° West 391 450 32,100 660 Climbing Chicago Center
08:35PM 43.0864 -85.1644 269° West 399 459 33,400 1,200 Climbing Chicago Center
08:36PM 43.0856 -85.3081 270° West 384 442 34,700 900 Climbing Chicago Center
08:37PM 43.0911 -85.4800 273° West 382 440 35,300 480 Climbing Chicago Center
08:38PM 43.1069 -85.6247 279° West 385 443 35,800 300 Climbing Chicago Center
08:39PM 43.1222 -85.7689 278° West 386 444 36,000 60 Climbing Chicago Center
08:40PM 43.1378 -85.9094 279° West 383 441 36,000  Level Chicago Center
08:41PM 43.1553 -86.0756 278° West 380 437 36,000  Level Chicago Center
08:42PM 43.1706 -86.2161 279° West 379 436 36,000  Level Chicago Center
08:43PM 43.1856 -86.3594 278° West 377 434 36,000  Level Chicago Center
08:44PM 43.1997 -86.4983 278° West 379 436 36,000  Level Chicago Center
08:45PM 43.2144 -86.6425 278° West 383 441 36,000  Level Chicago Center
08:46PM 43.2317 -86.8133 278° West 381 438 36,000  Level Chicago Center
08:47PM 43.2450 -86.9556 277° West 379 436 36,000  Level Chicago Center
08:48PM 43.2592 -87.0961 278° West 375 432 36,000  Level Chicago Center
08:49PM 43.2733 -87.2386 278° West 378 435 36,000  Level Chicago Center
08:50PM 43.2886 -87.4017 277° West 372 428 36,000  Level Chicago Center
08:52PM 43.3003 -87.5439 276° West 375 432 36,000  Level Chicago Center
08:53PM 43.3142 -87.6875 278° West 377 434 36,000  Level Chicago Center
08:54PM 43.3264 -87.8317 277° West 378 435 36,000  Level Chicago Center
08:55PM 43.3397 -87.9753 277° West 379 436 36,000  Level Chicago Center
08:56PM 43.3544 -88.1425 277° West 376 433 36,000  Level Chicago Center
08:57PM 43.3664 -88.2861 277° West 376 433 36,000  Level Chicago Center
08:58PM 43.3800 -88.4356 277° West 379 436 36,000  Level Chicago Center
08:59PM 43.3914 -88.5856 276° West 379 436 36,000  Level Chicago Center
09:00PM 43.4025 -88.7269 276° West 380 437 36,000  Level Chicago Center
09:01PM 43.4144 -88.8708 277° West 380 437 36,000  Level Chicago Center
09:02PM 43.4258 -89.0128 276° West 375 432 36,000  Level Chicago Center
09:03PM 43.4375 -89.1575 276° West 378 435 36,000  Level Chicago Center
09:04PM 43.4486 -89.3228 275° West 373 429 36,000  Level Chicago Center
09:05PM 43.4600 -89.4636 276° West 371 427 36,000  Level Chicago Center
09:06PM 43.4692 -89.6025 275° West 367 422 36,000  Level Chicago Center
09:07PM 43.4800 -89.7431 276° West 367 422 36,000  Level Chicago Center
09:08PM 43.4889 -89.8803 275° West 362 417 36,000  Level Chicago Center
09:09PM 43.5003 -90.0419 276° West 363 418 36,000  Level Chicago Center
09:10PM 43.4992 -90.1831 269° West 368 423 36,000  Level Chicago Center
09:11PM 43.5008 -90.3319 271° West 369 425 36,000  Level Chicago Center
09:12PM 43.5011 -90.4728 270° West 371 427 36,000  Level Chicago Center
09:13PM 43.5017 -90.6153 270° West 376 433 36,000  Level Chicago Center
09:14PM 43.5019 -90.7547 270° West 371 427 36,000  Level Chicago Center
09:15PM 43.5025 -90.7833 272° West 373 429 36,000  Level Minneapolis Center
09:16PM 43.5033 -90.9536 270° West 374 430 36,000  Level Minneapolis Center
09:17PM 43.5033 -91.1222 270° West 372 428 36,000  Level Minneapolis Center
09:18PM 43.5039 -91.2642 270° West 374 430 36,000  Level Minneapolis Center
09:19PM 43.5022 -91.4044 269° West 372 428 36,000  Level Minneapolis Center
09:20PM 43.5017 -91.5458 270° West 373 429 36,000  Level Minneapolis Center
09:21PM 43.5019 -91.6869 270° West 373 429 36,000  Level Minneapolis Center
09:22PM 43.5003 -91.8567 269° West 374 430 36,000  Level Minneapolis Center
09:23PM 43.4992 -91.9997 269° West 376 433 36,000  Level Minneapolis Center
09:24PM 43.4872 -92.1392 263° West 373 429 36,000  Level Minneapolis Center
09:25PM 43.4733 -92.2814 262° West 378 435 36,000  Level Minneapolis Center
09:26PM 43.4575 -92.4494 263° West 374 430 36,000  Level Minneapolis Center
09:27PM 43.4442 -92.5903 263° West 375 432 36,000  Level Minneapolis Center
09:28PM 43.4331 -92.7033 262° West 375 432 36,000  Level Minneapolis Center
09:29PM 43.4172 -92.8719 263° West 376 433 36,000  Level Minneapolis Center
09:30PM 43.4031 -93.0133 262° West 378 435 36,000  Level Minneapolis Center
09:31PM 43.3892 -93.1544 262° West 378 435 36,000  Level Minneapolis Center
09:32PM 43.3714 -93.3228 262° West 375 432 36,000  Level Minneapolis Center
09:33PM 43.3569 -93.4636 262° West 376 433 36,000  Level Minneapolis Center
09:34PM 43.3428 -93.6047 262° West 376 433 36,000  Level Minneapolis Center
09:35PM 43.3281 -93.7181 260° West 378 435 36,000  Level Minneapolis Center
09:36PM 43.3058 -93.9144 261° West 378 435 36,000  Level Minneapolis Center
09:37PM 43.2908 -94.0547 262° West 377 434 36,000  Level Minneapolis Center
09:38PM 43.2828 -94.1661 264° West 375 432 36,000  Level Minneapolis Center
09:39PM 43.2611 -94.3511 261° West 375 432 36,000  Level Minneapolis Center
09:41PM 43.2456 -94.4947 262° West 380 437 36,000  Level Minneapolis Center
09:42PM 43.2286 -94.6361 261° West 378 435 36,000  Level Minneapolis Center
09:43PM 43.2133 -94.7781 262° West 377 434 36,000  Level Minneapolis Center
09:44PM 43.1956 -94.9206 260° West 379 436 36,000  Level Minneapolis Center
09:45PM 43.1789 -95.0611 261° West 376 433 36,000  Level Minneapolis Center
09:46PM 43.1564 -95.2300 260° West 377 434 36,000  Level Minneapolis Center
09:47PM 43.1253 -95.3661 253° West 375 432 36,000  Level Minneapolis Center
09:48PM 43.0947 -95.5039 253° West 377 434 36,000  Level Minneapolis Center
09:49PM 43.0633 -95.6417 253° West 379 436 36,000  Level Minneapolis Center
09:50PM 43.0314 -95.7800 253° West 382 440 36,000  Level Minneapolis Center
09:51PM 43.0008 -95.9186 253° West 381 438 36,000  Level Minneapolis Center
09:52PM 42.9689 -96.0581 253° West 383 441 36,000  Level Minneapolis Center
09:53PM 42.9286 -96.2247 252° West 385 443 36,000  Level Minneapolis Center
09:54PM 42.8967 -96.3636 253° West 384 442 36,000  Level Minneapolis Center
09:55PM 42.8647 -96.5000 252° West 380 437 36,000  Level Minneapolis Center
09:56PM 42.8331 -96.6358 252° West 377 434 36,000  Level Minneapolis Center
09:57PM 42.8011 -96.7706 252° West 374 430 36,000  Level Minneapolis Center
09:58PM 42.7689 -96.9036 252° West 371 427 36,000  Level Minneapolis Center
09:59PM 42.7372 -97.0372 252° West 371 427 36,000  Level Minneapolis Center
10:00PM 42.7044 -97.1711 252° West 374 430 36,000  Level Minneapolis Center
10:02PM 42.6336 -97.4592 252° West 381 438 36,000  Level Minneapolis Center
10:03PM 42.6003 -97.5958 252° West 381 438 36,000  Level Minneapolis Center
10:04PM 42.5675 -97.7308 252° West 379 436 36,000  Level Minneapolis Center
10:05PM 42.5289 -97.8842 251° West 380 437 36,000  Level Minneapolis Center
10:06PM 42.4947 -98.0183 251° West 379 436 36,000  Level Minneapolis Center
10:07PM 42.4628 -98.1542 252° West 379 436 36,000  Level Minneapolis Center
10:08PM 42.4294 -98.2906 252° West 381 438 36,000  Level Minneapolis Center
10:09PM 42.3969 -98.4261 252° West 379 436 36,000  Level Minneapolis Center
10:10PM 42.3572 -98.5894 252° West 382 440 36,000  Level Minneapolis Center
10:11PM 42.3236 -98.7242 251° West 381 438 36,000  Level Minneapolis Center
10:12PM 42.2897 -98.8617 252° West 385 443 36,000  Level Minneapolis Center
10:14PM 42.2553 -98.9978 251° West 384 442 36,000  Level Minneapolis Center
10:15PM 42.2144 -99.1617 251° West 384 442 36,000 120 Level Minneapolis Center
10:16PM 42.1794 -99.2983 251° West 386 444 36,300 420 Climbing Minneapolis Center
10:17PM 42.1450 -99.4361 251° West 388 447 36,900 660 Climbing Minneapolis Center
10:17PM 42.1303 -99.4922 251° West 391 450 37,200 600 Climbing Denver Center
10:18PM 42.0958 -99.6281 251° West 388 447 37,700 360 Climbing Denver Center
10:19PM 42.0608 -99.7619 251° West 394 453 38,000 120 Climbing Denver Center
10:20PM 42.0203 -99.9186 251° West 398 458 38,000  Level Denver Center
10:21PM 41.9861 -100.0528 251° West 397 457 38,000  Level Denver Center
10:22PM 41.9450 -100.2056 250° West 392 451 38,000  Level Denver Center
10:23PM 41.9100 -100.3389 251° West 395 455 38,000  Level Denver Center
10:24PM 41.8683 -100.4956 250° West 401 461 38,000  Level Denver Center
10:25PM 41.8314 -100.6286 250° West 399 459 38,100  Climbing Denver Center
10:26PM 41.7897 -100.7822 250° West 395 455 38,000 -60 Descending Denver Center
10:27PM 41.7544 -100.9133 250° West 392 451 38,000  Level Denver Center
10:28PM 41.7117 -101.0672 250° West 395 455 38,000  Level Denver Center
10:29PM 41.6767 -101.1967 250° West 391 450 38,000  Level Denver Center
10:30PM 41.6394 -101.3275 249° West 394 453 38,000  Level Denver Center
10:31PM 41.5983 -101.4797 250° West 393 452 38,000  Level Denver Center
10:32PM 41.5608 -101.6106 249° West 395 455 38,000  Level Denver Center
10:33PM 41.5183 -101.7622 250° West 393 452 38,000  Level Denver Center
10:34PM 41.4814 -101.8931 249° West 394 453 38,000  Level Denver Center
10:36PM 41.4361 -102.0472 249° West 398 458 38,000  Level Denver Center
10:37PM 41.3983 -102.1792 249° West 401 461 38,000  Level Denver Center
10:38PM 41.3542 -102.3339 249° West 401 461 38,000  Level Denver Center
10:39PM 41.3150 -102.4653 248° West 401 461 38,000  Level Denver Center
10:40PM 41.2728 -102.6178 250° West 401 461 38,000  Level Denver Center
10:41PM 41.2322 -102.7508 248° West 404 465 38,000  Level Denver Center
10:42PM 41.1931 -102.8836 249° West 401 461 38,000  Level Denver Center
10:43PM 41.1481 -103.0383 249° West 403 464 38,000  Level Denver Center
10:44PM 41.1078 -103.1714 248° West 404 465 38,000  Level Denver Center
10:45PM 41.0617 -103.3250 248° West 403 464 38,000  Level Denver Center
10:46PM 41.0222 -103.4558 248° West 401 461 38,000  Level Denver Center
10:47PM 40.9819 -103.5892 248° West 405 466 38,000  Level Denver Center
10:48PM 40.9322 -103.7519 248° West 406 467 38,000  Level Denver Center
10:49PM 40.8900 -103.8892 248° West 400 460 38,000  Level Denver Center
10:50PM 40.8486 -104.0275 248° West 402 463 38,000  Level Denver Center
10:51PM 40.8058 -104.1631 247° West 395 455 38,000  Level Denver Center
10:52PM 40.7619 -104.2994 247° West 400 460 38,000  Level Denver Center
10:53PM 40.7256 -104.4136 247° West 402 463 38,000  Level Denver Center
10:54PM 40.6739 -104.5775 247° West 408 470 38,000  Level Denver Center
10:55PM 40.6294 -104.7147 247° West 405 466 38,000  Level Denver Center
10:56PM 40.5847 -104.8514 247° West 404 465 38,000  Level Denver Center
10:57PM 40.5397 -104.9883 247° West 406 467 38,000  Level Denver Center
10:58PM 40.4892 -105.1456 247° West 399 459 38,000  Level Denver Center
10:59PM 40.4433 -105.2825 246° West 405 466 38,000  Level Denver Center
11:00PM 40.3981 -105.4181 246° West 403 464 38,000  Level Denver Center
11:01PM 40.3539 -105.5506 246° West 395 455 38,000  Level Denver Center
11:02PM 40.3017 -105.7081 247° West 400 460 38,000  Level Denver Center
11:03PM 40.2547 -105.8453 246° West 407 468 38,000  Level Denver Center
11:04PM 40.2075 -105.9842 246° West 414 476 38,100  Climbing Denver Center
11:05PM 40.1525 -106.1456 246° West 413 475 38,100 -60 Level Denver Center
11:07PM 40.1208 -106.2367 246° West 412 474 38,000 -60 Descending Denver Center
11:08PM 40.0581 -106.4186 246° West 409 471 38,000  Level Denver Center
11:09PM 40.0156 -106.5447 246° West 406 467 38,000  Level Denver Center
11:10PM 39.9622 -106.6964 245° Southwest 411 473 38,000  Level Denver Center
11:11PM 39.9147 -106.8361 246° West 411 473 38,000  Level Denver Center
11:12PM 39.8664 -106.9708 245° Southwest 413 475 38,000  Level Denver Center
11:13PM 39.8092 -107.1336 245° Southwest 414 476 38,000  Level Denver Center
11:14PM 39.7575 -107.2817 246° West 410 472 38,000  Level Denver Center
11:15PM 39.7119 -107.4097 245° Southwest 408 470 38,000  Level Denver Center
11:16PM 39.6508 -107.5800 245° Southwest 407 468 38,000  Level Denver Center
11:17PM 39.6047 -107.7081 245° Southwest 408 470 38,000  Level Denver Center
11:18PM 39.5511 -107.8578 245° Southwest 408 470 38,000  Level Denver Center
11:19PM 39.5036 -107.9875 245° Southwest 413 475 38,000  Level Denver Center
11:20PM 39.4661 -108.1164 249° West 400 460 38,000  Level Denver Center
11:21PM 39.4231 -108.2697 250° West 403 464 38,000  Level Denver Center
11:22PM 39.3844 -108.4044 250° West 412 474 38,000  Level Denver Center
11:24PM 39.3475 -108.5356 250° West 407 468 38,000  Level Denver Center
11:25PM 39.2956 -108.7131 249° West 410 472 38,000  Level Denver Center
11:26PM 39.2578 -108.8464 250° West 410 472 38,000  Level Denver Center
11:27PM 39.2122 -109.0028 249° West 415 478 38,000  Level Denver Center
11:28PM 39.1731 -109.1381 250° West 418 481 38,000  Level Denver Center
11:29PM 39.1264 -109.2939 249° West 416 479 38,000  Level Denver Center
11:30PM 39.0872 -109.4300 250° West 422 486 38,000  Level Denver Center
11:31PM 39.0528 -109.5417 248° West 422 486 38,000  Level Denver Center
11:32PM 39.0008 -109.7233 250° West 425 489 38,000  Level Denver Center
11:33PM 38.9600 -109.8592 249° West 426 490 38,000  Level Denver Center
11:34PM 38.9031 -109.9847 240° Southwest 425 489 38,000  Level Salt Lake Center
11:35PM 38.8267 -110.1261 235° Southwest 431 496 38,000  Level Denver Center
11:36PM 38.7597 -110.2472 235° Southwest 433 498 38,000  Level Denver Center
11:37PM 38.6839 -110.3878 235° Southwest 431 496 38,000  Level Denver Center
11:38PM 38.6303 -110.4867 235° Southwest 428 493 38,000  Level Salt Lake Center
11:38PM 38.6086 -110.5261 235° Southwest 426 490 38,000  Level Denver Center
11:39PM 38.5561 -110.6289 237° Southwest 430 495 38,000  Level Salt Lake Center
11:40PM 38.4908 -110.7483 235° Southwest 429 494 38,000 -540 Level Salt Lake Center
11:41PM 38.4153 -110.8833 234° Southwest 420 483 37,000 -960 Descending Salt Lake Center
11:42PM 38.3608 -110.9869 236° Southwest 412 474 36,100 -1,080 Descending Salt Lake Center
11:43PM 38.2811 -111.1311 235° Southwest 415 478 34,900 -1,080 Descending Salt Lake Center
11:44PM 38.2119 -111.2553 235° Southwest 429 494 34,000 -480 Descending Salt Lake Center
11:45PM 38.1425 -111.3794 235° Southwest 431 496 34,000 -180 Level Salt Lake Center
11:46PM 38.0753 -111.5042 236° Southwest 429 494 33,700 -660 Descending Salt Lake Center
11:47PM 38.0067 -111.6244 234° Southwest 423 487 32,700 -840 Descending Salt Lake Center
11:48PM 37.9367 -111.7447 234° Southwest 423 487 32,000 -360 Descending Salt Lake Center
11:49PM 37.8656 -111.8703 234° Southwest 435 501 32,000  Level Salt Lake Center
11:50PM 37.7942 -111.9969 235° Southwest 442 509 32,000  Level Salt Lake Center
11:51PM 37.7242 -112.1225 235° Southwest 438 504 32,000  Level Salt Lake Center
11:52PM 37.6394 -112.2717 234° Southwest 435 501 32,000  Level Salt Lake Center
11:53PM 37.5694 -112.3933 234° Southwest 430 495 32,000  Level Salt Lake Center
11:54PM 37.4964 -112.5194 234° Southwest 437 503 32,000  Level Salt Lake Center
11:55PM 37.4222 -112.6472 234° Southwest 445 512 32,000 -60 Level Salt Lake Center
11:56PM 37.3472 -112.7756 234° Southwest 447 514 31,900 -540 Descending Salt Lake Center
11:57PM 37.2739 -112.9039 234° Southwest 449 517 30,900 -1,020 Descending Salt Lake Center
11:58PM 37.1997 -113.0308 234° Southwest 448 516 29,900 -1,020 Descending Salt Lake Center
11:59PM 37.1253 -113.1586 234° Southwest 451 519 28,900 -840 Descending Salt Lake Center
12:00AM 37.0536 -113.2892 236° Southwest 453 521 28,300 -540 Descending Salt Lake Center
12:01AM 36.9814 -113.4239 236° Southwest 462 532 27,900 -540 Descending Salt Lake Center
12:03AM 36.8936 -113.5822 235° Southwest 463 533 27,200 -1,020 Descending Los Angeles Center
12:04AM 36.8189 -113.7175 235° Southwest 472 543 25,700 -2,700 Descending Los Angeles Center
12:05AM 36.7328 -113.8728 235° Southwest 456 525 21,700 -3,120 Descending Los Angeles Center
12:06AM 36.6639 -113.9969 235° Southwest 440 506 18,800 -3,060 Descending Los Angeles Center
12:07AM 36.5853 -114.1394 236° Southwest 422 486 14,900 -2,880 Descending Los Angeles Center
12:08AM 36.5142 -114.2639 235° Southwest 409 471 12,900 -1,620 Descending Los Angeles Center
12:09AM 36.4658 -114.3564 237° Southwest 395 455 12,000 -900 Descending Los Angeles Center
12:09AM 36.4517 -114.3756 227° Southwest 398 458 12,000  Level Los Angeles Center
12:09AM 36.4336 -114.4156 241° Southwest 348 400 12,000 -420 Level Los Angeles Center
12:10AM 36.3850 -114.4417 203° Southwest 329 379 11,600 -900 Descending Los Angeles Center
12:10AM 36.3533 -114.4536 197° South 307 353 11,100 -1,320 Descending Los Angeles Center
12:11AM 36.3006 -114.4619 187° South 308 354 10,300 -1,380 Descending Los Angeles Center
12:11AM 36.2628 -114.4739 194° South 302 348 9,600 -1,380 Descending Los Angeles Center
12:12AM 36.2186 -114.4817 188° South 301 346 8,900 -1,200 Descending Los Angeles Center
12:12AM 36.1847 -114.4925 194° South 290 334 8,400 -900 Descending Los Angeles Center
12:13AM 36.1425 -114.5019 190° South 285 328 8,000 -420 Descending Los Angeles Center
12:13AM 36.1258 -114.5497 247° West 279 321 8,000  Level Los Angeles Center
12:14AM 36.1136 -114.5889 249° West 279 321 8,000  Level Los Angeles Center
12:14AM 36.0983 -114.6389 249° West 277 319 8,000  Level Los Angeles Center
12:15AM 36.0881 -114.6789 252° West 277 319 8,000  Level Los Angeles Center
12:15AM 36.0753 -114.7211 249° West 273 314 8,000 -540 Level Los Angeles Center
12:16AM 36.0728 -114.7869 267° West 273 314 7,500 -600 Descending Los Angeles Center
12:16AM 36.0739 -114.8122 273° West 261 300 7,400 -720 Descending Los Angeles Center
12:17AM 36.0742 -114.8661 270° West 250 288 6,800 -900 Descending Los Angeles Center
12:17AM 36.0744 -114.8839 271° West 206 237 6,500 -1,560 Descending Los Angeles Center
12:18AM 36.0739 -114.9253 269° West 208 239 5,200 -1,560 Descending Los Angeles Center
12:18AM 36.0733 -114.9481 268° West 174 200 4,800 -1,020 Descending Los Angeles Center
12:19AM 36.0739 -114.9856 271° West 185 213 4,200 -1,020 Descending Los Angeles Center
12:20AM 36.0744 -115.0117 272° West 179 206 3,800 -1,020 Descending Los Angeles Center
12:20AM 36.0744 -115.0436 270° West 176 203 3,200 -840 Descending Los Angeles Center
12:21AM 36.0725 -115.0628 263° West 137 158 3,000 -720 Descending Los Angeles Center
12:21AM 36.0733 -115.0900 272° West 158 182 2,500 -720 Descending Los Angeles Center
12:22AM 36.0733 -115.1158 270° West 142 163 2,200 -600 Descending Los Angeles Center
12:22AM 36.0744 -115.1369 274° West 145 167 1,900 -480 Descending Los Angeles Center
12:24AM 36.0667 -115.1500 219° Southwest  Level FlightAware Approximate